createdAt,value
2018-12-08T00:01:04.475Z,91.70
2018-12-08T00:03:42.131Z,91.80
2018-12-08T00:06:11.695Z,92.10
2018-12-08T00:08:41.384Z,91.60
2018-12-08T00:11:10.908Z,91.50
2018-12-08T00:13:51.106Z,91.50
2018-12-08T00:16:20.414Z,91.10
2018-12-08T00:18:50.273Z,91.00
2018-12-08T00:21:19.503Z,91.30
2018-12-08T00:24:05.511Z,90.60
2018-12-08T00:26:35.554Z,90.60
2018-12-08T00:29:04.995Z,90.40
2018-12-08T00:31:43.683Z,90.40
2018-12-08T00:34:23.200Z,90.10
2018-12-08T00:36:52.503Z,90.20
2018-12-08T00:39:21.939Z,90.10
2018-12-08T00:41:51.235Z,89.00
2018-12-08T00:44:23.816Z,89.20
2018-12-08T00:46:53.155Z,88.10
2018-12-08T00:49:22.408Z,88.40
2018-12-08T00:51:51.810Z,89.20
2018-12-08T00:54:23.598Z,88.50
2018-12-08T00:56:52.938Z,88.80
2018-12-08T00:59:21.869Z,87.00
2018-12-08T01:01:51.374Z,85.40
2018-12-08T01:04:22.440Z,86.00
2018-12-08T01:06:51.713Z,86.20
2018-12-08T01:09:20.915Z,86.80
2018-12-08T01:11:50.323Z,86.10
2018-12-08T01:14:29.871Z,84.60
2018-12-08T01:16:59.269Z,84.20
2018-12-08T01:19:28.485Z,85.00
2018-12-08T01:21:57.692Z,84.40
2018-12-08T01:24:27.726Z,82.90
2018-12-08T01:26:57.023Z,83.00
2018-12-08T01:29:26.940Z,83.00
2018-12-08T01:31:56.051Z,82.20
2018-12-08T01:34:25.438Z,81.30
2018-12-08T01:36:54.698Z,80.40
2018-12-08T01:39:24.127Z,80.50
2018-12-08T01:41:53.479Z,80.10
2018-12-08T01:44:22.625Z,79.70
2018-12-08T01:46:52.162Z,79.90
2018-12-08T01:49:21.352Z,80.70
2018-12-08T01:51:51.036Z,81.10
2018-12-08T01:54:20.192Z,81.20
2018-12-08T01:56:57.243Z,81.60
2018-12-08T01:59:26.383Z,81.50
2018-12-08T02:01:56.002Z,81.70
2018-12-08T02:04:25.102Z,81.10
2018-12-08T02:06:59.044Z,81.90
2018-12-08T02:09:28.126Z,82.70
2018-12-08T02:11:57.333Z,82.50
2018-12-08T02:14:26.724Z,83.00
2018-12-08T02:16:56.236Z,82.20
2018-12-08T02:19:26.050Z,82.40
2018-12-08T02:21:55.370Z,82.50
2018-12-08T02:24:24.426Z,82.80
2018-12-08T02:26:53.620Z,82.80
2018-12-08T02:29:22.730Z,83.50
2018-12-08T02:31:52.111Z,83.90
2018-12-08T02:34:21.407Z,84.90
2018-12-08T02:36:50.678Z,85.50
2018-12-08T02:39:20.024Z,85.50
2018-12-08T02:41:49.465Z,85.90
2018-12-08T02:44:18.886Z,86.90
2018-12-08T02:46:50.010Z,88.90
2018-12-08T02:49:19.455Z,90.20
2018-12-08T02:51:50.993Z,90.80
2018-12-08T02:54:20.108Z,91.10
2018-12-08T02:56:50.902Z,91.30
2018-12-08T02:59:20.323Z,91.70
2018-12-08T03:01:50.615Z,92.20
2018-12-08T03:04:19.933Z,93.00
2018-12-08T03:07:01.161Z,93.90
2018-12-08T03:09:30.649Z,94.40
2018-12-08T03:11:59.902Z,94.60
2018-12-08T03:14:29.183Z,95.00
2018-12-08T03:19:45.661Z,95.30
2018-12-08T03:22:15.139Z,95.50
2018-12-08T03:24:44.503Z,95.80
2018-12-08T03:27:18.010Z,95.40
2018-12-08T03:29:47.174Z,95.10
2018-12-08T03:32:15.999Z,94.90
2018-12-08T03:34:45.303Z,95.10
2018-12-08T03:37:14.707Z,95.50
2018-12-08T03:39:44.001Z,96.20
2018-12-08T03:42:13.187Z,95.90
2018-12-08T03:44:42.483Z,95.50
2018-12-08T03:47:18.861Z,95.60
2018-12-08T03:49:48.084Z,95.30
2018-12-08T03:52:17.270Z,95.00
2018-12-08T03:54:46.175Z,95.30
2018-12-08T03:59:59.273Z,95.80
2018-12-08T04:02:28.514Z,96.10
2018-12-08T04:04:58.200Z,96.30
2018-12-08T04:07:31.487Z,96.20
2018-12-08T04:10:00.835Z,96.40
2018-12-08T04:12:30.019Z,96.80
2018-12-08T04:14:59.158Z,96.90
2018-12-08T04:17:44.225Z,96.60
2018-12-08T04:20:14.469Z,96.70
2018-12-08T04:22:43.757Z,97.00
2018-12-08T04:25:13.579Z,97.00
2018-12-08T04:30:51.987Z,97.20
2018-12-08T04:33:21.021Z,97.10
2018-12-08T04:35:50.089Z,97.10
2018-12-08T04:38:19.584Z,97.20
2018-12-08T04:40:48.808Z,97.20
2018-12-08T04:43:18.003Z,97.30
2018-12-08T04:45:47.267Z,97.00
2018-12-08T04:48:20.207Z,97.10
2018-12-08T04:50:49.762Z,97.40
2018-12-08T04:53:18.861Z,97.50
2018-12-08T04:55:48.774Z,97.60
2018-12-08T04:58:18.163Z,97.80
2018-12-08T05:00:47.694Z,97.90
2018-12-08T05:03:16.831Z,97.50
2018-12-08T05:05:46.273Z,97.60
2018-12-08T05:08:15.396Z,97.60
2018-12-08T05:10:44.674Z,97.80
2018-12-08T05:13:13.679Z,97.90
2018-12-08T05:15:43.273Z,97.50
2018-12-08T05:18:18.772Z,97.60
2018-12-08T05:20:47.903Z,97.40
2018-12-08T05:23:17.112Z,97.10
2018-12-08T05:25:46.567Z,97.10
2018-12-08T05:28:15.790Z,96.60
2018-12-08T05:30:45.160Z,96.30
2018-12-08T05:33:20.163Z,96.20
2018-12-08T05:35:50.130Z,96.30
2018-12-08T05:38:43.099Z,96.20
2018-12-08T05:41:12.433Z,96.30
2018-12-08T05:43:41.604Z,96.00
2018-12-08T05:46:10.892Z,96.30
2018-12-08T05:48:40.959Z,96.10
2018-12-08T05:51:10.775Z,95.80
2018-12-08T05:53:40.107Z,95.80
2018-12-08T05:56:09.300Z,95.50
2018-12-08T05:58:38.657Z,95.30
2018-12-08T06:01:08.100Z,95.30
2018-12-08T06:03:37.640Z,94.80
2018-12-08T06:06:06.647Z,94.60
2018-12-08T06:08:37.449Z,94.50
2018-12-08T06:11:08.134Z,94.30
2018-12-08T06:13:40.046Z,94.20
2018-12-08T06:16:09.498Z,94.10
2018-12-08T06:18:46.315Z,94.00
2018-12-08T06:21:30.539Z,94.20
2018-12-08T06:24:07.338Z,93.90
2018-12-08T06:26:43.069Z,93.90
2018-12-08T06:29:12.262Z,93.70
2018-12-08T06:31:41.513Z,93.50
2018-12-08T06:34:11.203Z,93.20
2018-12-08T06:36:40.398Z,93.40
2018-12-08T06:39:14.784Z,93.30
2018-12-08T06:41:43.915Z,93.50
2018-12-08T06:44:13.150Z,93.30
2018-12-08T06:46:42.815Z,93.10
2018-12-08T06:49:12.053Z,92.90
2018-12-08T06:51:41.434Z,92.60
2018-12-08T06:54:10.575Z,92.50
2018-12-08T06:56:39.847Z,92.40
2018-12-08T06:59:15.089Z,91.90
2018-12-08T07:01:45.026Z,92.00
2018-12-08T07:04:14.230Z,91.80
2018-12-08T07:06:43.433Z,91.90
2018-12-08T07:09:19.823Z,91.30
2018-12-08T07:11:49.354Z,91.70
2018-12-08T07:14:18.386Z,91.40
2018-12-08T07:16:47.663Z,91.60
2018-12-08T07:19:18.220Z,91.10
2018-12-08T07:21:47.498Z,91.10
2018-12-08T07:24:16.850Z,91.30
2018-12-08T07:26:46.143Z,91.30
2018-12-08T07:29:26.429Z,91.20
2018-12-08T07:34:40.444Z,91.20
2018-12-08T07:37:11.971Z,91.30
2018-12-08T07:39:41.188Z,91.70
2018-12-08T07:42:10.284Z,91.60
2018-12-08T07:44:39.518Z,91.70
2018-12-08T07:47:09.203Z,91.70
2018-12-08T07:49:38.454Z,91.60
2018-12-08T07:52:07.798Z,91.80
2018-12-08T07:54:37.330Z,91.80
2018-12-08T07:57:07.013Z,92.00
2018-12-08T07:59:36.325Z,91.70
2018-12-08T08:02:07.747Z,91.90
2018-12-08T08:04:37.170Z,92.00
2018-12-08T08:07:06.706Z,92.10
2018-12-08T08:09:40.598Z,92.00
2018-12-08T08:12:09.808Z,92.20
2018-12-08T08:14:39.539Z,92.40
2018-12-08T08:17:09.200Z,92.10
2018-12-08T08:19:38.354Z,92.50
2018-12-08T08:22:07.820Z,92.10
2018-12-08T08:24:37.028Z,92.40
2018-12-08T08:27:06.566Z,92.10
2018-12-08T08:29:36.154Z,92.10
2018-12-08T08:32:05.542Z,92.00
2018-12-08T08:34:34.777Z,92.00
2018-12-08T08:37:03.918Z,92.10
2018-12-08T08:39:33.138Z,91.70
2018-12-08T08:42:02.492Z,91.50
2018-12-08T08:44:32.118Z,91.60
2018-12-08T08:47:01.803Z,91.80
2018-12-08T08:49:31.128Z,91.60
2018-12-08T08:52:00.803Z,91.70
2018-12-08T08:54:30.169Z,91.80
2018-12-08T08:57:00.002Z,91.40
2018-12-08T08:59:29.700Z,91.90
2018-12-08T09:01:59.107Z,91.90
2018-12-08T09:04:28.374Z,91.70
2018-12-08T09:06:57.574Z,91.70
2018-12-08T09:09:26.839Z,91.50
2018-12-08T09:11:56.166Z,91.70
2018-12-08T09:14:25.339Z,91.30
2018-12-08T09:16:55.058Z,91.30
2018-12-08T09:19:24.477Z,91.40
2018-12-08T09:21:53.654Z,91.40
2018-12-08T09:24:23.091Z,91.80
2018-12-08T09:26:52.814Z,91.80
2018-12-08T09:29:22.095Z,91.80
2018-12-08T09:31:51.829Z,91.50
2018-12-08T09:34:24.131Z,91.20
2018-12-08T09:36:54.258Z,91.50
2018-12-08T09:39:23.621Z,92.00
2018-12-08T09:41:52.897Z,92.30
2018-12-08T09:44:22.021Z,91.90
2018-12-08T09:46:51.276Z,91.70
2018-12-08T09:49:20.903Z,91.90
2018-12-08T09:51:50.642Z,91.50
2018-12-08T09:54:24.388Z,91.30
2018-12-08T09:56:53.682Z,91.80
2018-12-08T09:59:23.188Z,92.40
2018-12-08T10:01:52.932Z,92.00
2018-12-08T10:04:21.945Z,92.60
2018-12-08T10:06:51.139Z,92.30
2018-12-08T10:09:20.446Z,92.40
2018-12-08T10:11:49.419Z,92.60
2018-12-08T10:14:19.361Z,92.80
2018-12-08T10:16:49.046Z,93.30
2018-12-08T10:19:18.358Z,92.70
2018-12-08T10:21:47.730Z,94.00
2018-12-08T10:24:16.963Z,94.00
2018-12-08T10:26:45.954Z,94.20
2018-12-08T10:29:15.065Z,94.20
2018-12-08T10:31:44.655Z,93.50
2018-12-08T10:34:14.162Z,94.10
2018-12-08T10:36:45.385Z,94.00
2018-12-08T10:39:14.902Z,94.60
2018-12-08T10:41:45.654Z,94.80
2018-12-08T10:44:14.830Z,94.80
2018-12-08T10:46:44.178Z,95.50
2018-12-08T10:49:13.470Z,95.80
2018-12-08T10:51:42.806Z,95.90
2018-12-08T10:54:12.404Z,96.70
2018-12-08T10:56:41.661Z,96.20
2018-12-08T10:59:12.018Z,96.10
2018-12-08T11:02:51.059Z,95.70
2018-12-08T11:05:20.399Z,95.70
2018-12-08T11:07:51.152Z,95.40
2018-12-08T11:10:20.374Z,95.30
2018-12-08T11:12:49.269Z,95.00
2018-12-08T11:15:18.717Z,94.90
2018-12-08T11:17:48.040Z,94.80
2018-12-08T11:20:18.246Z,94.20
2018-12-08T11:22:47.661Z,94.40
2018-12-08T11:25:16.989Z,94.60
2018-12-08T11:27:46.310Z,94.80
2018-12-08T11:30:15.796Z,94.60
2018-12-08T11:32:45.058Z,94.60
2018-12-08T11:35:14.211Z,95.40
2018-12-08T11:37:54.980Z,95.10
2018-12-08T11:40:24.583Z,95.00
2018-12-08T11:42:53.579Z,94.50
2018-12-08T11:45:22.857Z,94.20
2018-12-08T11:47:52.099Z,94.00
2018-12-08T11:50:21.368Z,94.20
2018-12-08T11:52:50.574Z,94.10
2018-12-08T11:55:19.742Z,92.70
2018-12-08T11:57:49.352Z,93.70
2018-12-08T12:00:18.658Z,93.90
2018-12-08T12:02:48.265Z,94.60
2018-12-08T12:05:17.618Z,94.60
2018-12-08T12:07:46.912Z,94.40
2018-12-08T12:10:16.369Z,94.00
2018-12-08T12:12:45.659Z,94.20
2018-12-08T12:15:14.798Z,94.40
2018-12-08T12:17:44.099Z,94.70
2018-12-08T12:20:13.349Z,94.60
2018-12-08T12:22:43.275Z,94.60
2018-12-08T12:25:12.676Z,94.60
2018-12-08T12:27:42.999Z,94.90
2018-12-08T12:30:12.434Z,94.90
2018-12-08T12:32:41.894Z,94.60
2018-12-08T12:35:11.258Z,94.40
2018-12-08T12:37:41.002Z,94.10
2018-12-08T12:40:10.420Z,94.60
2018-12-08T12:42:40.118Z,95.40
2018-12-08T12:45:09.179Z,95.60
2018-12-08T12:47:38.708Z,96.00
2018-12-08T12:50:08.366Z,96.00
2018-12-08T12:52:37.563Z,95.70
2018-12-08T12:55:07.239Z,95.80
2018-12-08T12:57:36.858Z,96.00
2018-12-08T13:00:08.849Z,95.60
2018-12-08T13:02:38.298Z,95.80
2018-12-08T13:05:07.500Z,95.10
2018-12-08T13:07:40.674Z,95.50
2018-12-08T13:12:49.655Z,94.90
2018-12-08T13:15:18.848Z,95.40
2018-12-08T13:17:48.633Z,95.30
2018-12-08T13:20:17.898Z,95.80
2018-12-08T13:22:47.535Z,95.70
2018-12-08T13:25:24.878Z,95.60
2018-12-08T13:27:54.033Z,96.40
2018-12-08T13:30:23.088Z,96.70
2018-12-08T13:32:52.964Z,96.70
2018-12-08T13:36:00.549Z,96.50
2018-12-08T13:38:29.881Z,96.50
2018-12-08T13:41:05.243Z,96.60
2018-12-08T13:43:34.303Z,96.90
2018-12-08T13:46:03.667Z,96.50
2018-12-08T13:48:34.021Z,96.80
2018-12-08T13:51:03.530Z,97.00
2018-12-08T13:53:36.814Z,96.60
2018-12-08T13:56:05.715Z,97.40
2018-12-08T13:58:34.919Z,97.10
2018-12-08T14:01:04.139Z,97.50
2018-12-08T14:03:33.343Z,97.20
2018-12-08T14:06:02.763Z,97.40
2018-12-08T14:08:32.098Z,97.60
2018-12-08T14:11:01.315Z,97.60
2018-12-08T14:13:30.959Z,97.70
2018-12-08T14:16:00.389Z,97.80
2018-12-08T14:18:29.651Z,97.80
2018-12-08T14:20:59.006Z,98.00
2018-12-08T14:23:28.479Z,98.00
2018-12-08T14:25:57.580Z,98.00
2018-12-08T14:28:26.699Z,98.00
2018-12-08T14:30:55.876Z,98.00
2018-12-08T14:33:25.372Z,98.10
2018-12-08T14:35:55.114Z,98.40
2018-12-08T14:38:24.499Z,98.30
2018-12-08T14:40:54.227Z,97.80
2018-12-08T14:43:23.685Z,97.80
2018-12-08T14:45:52.959Z,97.60
2018-12-08T14:48:22.291Z,97.30
2018-12-08T14:50:51.806Z,97.60
2018-12-08T14:53:21.039Z,97.30
2018-12-08T14:55:50.783Z,97.10
2018-12-08T14:58:20.209Z,97.30
2018-12-08T15:00:49.279Z,97.40
2018-12-08T15:03:19.095Z,97.50
2018-12-08T15:05:49.026Z,97.60
2018-12-08T15:08:18.379Z,97.30
2018-12-08T15:10:47.959Z,97.10
2018-12-08T15:13:37.285Z,97.10
2018-12-08T15:16:06.570Z,96.40
2018-12-08T15:18:36.484Z,96.40
2018-12-08T15:21:05.969Z,96.30
2018-12-08T15:23:35.205Z,96.10
2018-12-08T15:26:04.480Z,96.10
2018-12-08T15:28:33.758Z,96.10
2018-12-08T15:31:03.046Z,96.00
2018-12-08T15:33:32.577Z,96.00
2018-12-08T15:36:02.408Z,96.30
2018-12-08T15:38:32.130Z,95.80
2018-12-08T15:41:01.266Z,95.80
2018-12-08T15:43:30.533Z,95.90
2018-12-08T15:45:59.870Z,95.40
2018-12-08T15:48:29.161Z,95.60
2018-12-08T15:50:58.626Z,95.60
2018-12-08T15:53:27.497Z,95.70
2018-12-08T15:55:56.898Z,95.30
2018-12-08T15:58:26.700Z,95.60
2018-12-08T16:00:55.994Z,95.30
2018-12-08T16:03:25.355Z,95.30
2018-12-08T16:05:54.810Z,95.50
2018-12-08T16:08:24.146Z,95.70
2018-12-08T16:10:53.469Z,95.30
2018-12-08T16:13:23.086Z,95.30
2018-12-08T16:15:52.347Z,95.00
2018-12-08T16:18:22.122Z,95.20
2018-12-08T16:20:51.951Z,95.00
2018-12-08T16:23:21.114Z,95.00
2018-12-08T16:25:50.170Z,94.80
2018-12-08T16:28:19.553Z,94.40
2018-12-08T16:30:48.742Z,94.60
2018-12-08T16:33:18.049Z,94.40
2018-12-08T16:35:47.250Z,94.20
2018-12-08T16:38:16.750Z,94.40
2018-12-08T16:40:45.879Z,94.30
2018-12-08T16:43:15.390Z,94.40
2018-12-08T16:45:44.847Z,94.40
2018-12-08T16:48:14.224Z,94.60
2018-12-08T16:50:43.398Z,94.40
2018-12-08T16:53:12.694Z,94.60
2018-12-08T16:55:42.348Z,94.90
2018-12-08T16:58:11.488Z,94.50
2018-12-08T17:00:40.968Z,94.60
2018-12-08T17:03:10.306Z,94.40
2018-12-08T17:05:39.759Z,94.50
2018-12-08T17:08:09.284Z,94.30
2018-12-08T17:10:38.744Z,94.20
2018-12-08T17:13:08.296Z,94.10
2018-12-08T17:15:37.583Z,94.10
2018-12-08T17:18:08.488Z,94.20
2018-12-08T17:20:38.403Z,94.20
2018-12-08T17:23:07.890Z,94.00
2018-12-08T17:25:37.261Z,94.20
2018-12-08T17:28:08.830Z,94.10
2018-12-08T17:30:38.459Z,94.00
2018-12-08T17:33:07.902Z,94.10
2018-12-08T17:35:38.494Z,94.30
2018-12-08T17:38:08.764Z,94.20
2018-12-08T17:40:38.348Z,94.20
2018-12-08T17:43:07.789Z,94.20
2018-12-08T17:45:37.161Z,93.90
2018-12-08T17:48:07.312Z,94.10
2018-12-08T17:50:36.723Z,94.10
2018-12-08T17:53:06.087Z,94.30
2018-12-08T17:55:35.824Z,94.30
2018-12-08T17:58:05.499Z,94.30
2018-12-08T18:00:35.273Z,94.50
2018-12-08T18:03:04.758Z,94.40
2018-12-08T18:05:34.088Z,94.40
2018-12-08T18:08:03.758Z,94.30
2018-12-08T18:10:33.117Z,94.30
2018-12-08T18:13:02.906Z,94.50
2018-12-08T18:15:32.582Z,94.70
2018-12-08T18:18:08.963Z,94.90
2018-12-08T18:20:38.814Z,95.10
2018-12-08T18:23:08.204Z,95.20
2018-12-08T18:25:37.733Z,95.10
2018-12-08T18:28:07.365Z,95.20
2018-12-08T18:30:36.836Z,95.10
2018-12-08T18:33:06.371Z,95.20
2018-12-08T18:35:35.866Z,95.10
2018-12-08T18:38:05.254Z,95.20
2018-12-08T18:40:35.051Z,95.00
2018-12-08T18:43:04.559Z,95.00
2018-12-08T18:45:33.829Z,95.00
2018-12-08T18:48:03.477Z,95.00
2018-12-08T18:50:32.998Z,95.00
2018-12-08T18:53:02.386Z,94.90
2018-12-08T18:55:31.961Z,94.80
2018-12-08T18:58:01.536Z,95.00
2018-12-08T19:00:31.431Z,95.10
2018-12-08T19:03:00.794Z,95.00
2018-12-08T19:05:30.031Z,95.20
2018-12-08T19:08:04.506Z,95.00
2018-12-08T19:10:33.844Z,94.90
2018-12-08T19:13:03.268Z,94.70
2018-12-08T19:15:33.749Z,94.70
2018-12-08T19:18:03.545Z,94.70
2018-12-08T19:20:33.574Z,94.60
2018-12-08T19:23:02.950Z,94.40
2018-12-08T19:25:32.246Z,94.30
2018-12-08T19:28:01.571Z,94.20
2018-12-08T19:30:31.231Z,94.20
2018-12-08T19:33:00.258Z,94.20
2018-12-08T19:35:29.588Z,94.10
2018-12-08T19:37:59.008Z,93.90
2018-12-08T19:40:28.342Z,93.90
2018-12-08T19:42:57.455Z,94.10
2018-12-08T19:45:26.710Z,94.10
2018-12-08T19:47:56.192Z,94.60
2018-12-08T19:50:33.177Z,95.10
2018-12-08T19:53:02.360Z,95.40
2018-12-08T19:55:32.003Z,95.90
2018-12-08T19:58:03.349Z,96.30
2018-12-08T20:00:32.716Z,96.20
2018-12-08T20:03:01.852Z,96.20
2018-12-08T20:05:31.061Z,96.40
2018-12-08T20:08:00.833Z,97.00
2018-12-08T20:10:30.212Z,97.30
2018-12-08T20:12:59.369Z,97.60
2018-12-08T20:15:29.622Z,97.90
2018-12-08T20:17:59.054Z,98.00
2018-12-08T20:20:28.366Z,98.30
2018-12-08T20:22:57.610Z,98.40
2018-12-08T20:25:27.246Z,98.10
2018-12-08T20:27:56.650Z,98.10
2018-12-08T20:30:26.109Z,98.00
2018-12-08T20:32:55.433Z,98.10
2018-12-08T20:35:24.570Z,98.60
2018-12-08T20:37:53.634Z,98.30
2018-12-08T20:40:22.790Z,98.40
2018-12-08T20:42:52.745Z,98.50
2018-12-08T20:45:21.793Z,98.50
2018-12-08T20:47:51.138Z,98.50
2018-12-08T20:50:19.993Z,98.40
2018-12-08T20:52:49.387Z,98.20
2018-12-08T20:55:19.052Z,98.20
2018-12-08T20:57:48.750Z,98.00
2018-12-08T21:00:17.953Z,98.30
2018-12-08T21:02:48.326Z,98.30
2018-12-08T21:05:17.775Z,98.20
2018-12-08T21:07:47.363Z,98.00
2018-12-08T21:10:16.398Z,97.80
2018-12-08T21:12:46.183Z,97.70
2018-12-08T21:15:15.560Z,97.40
2018-12-08T21:17:44.870Z,97.00
2018-12-08T21:20:14.226Z,97.10
2018-12-08T21:22:43.668Z,96.60
2018-12-08T21:25:13.135Z,96.80
2018-12-08T21:27:42.300Z,96.80
2018-12-08T21:30:11.421Z,96.70
2018-12-08T21:32:40.530Z,96.40
2018-12-08T21:35:09.855Z,96.30
2018-12-08T21:37:39.172Z,96.20
2018-12-08T21:40:17.085Z,96.10
2018-12-08T21:42:46.602Z,95.90
2018-12-08T21:45:16.624Z,95.80
2018-12-08T21:47:46.013Z,95.90
2018-12-08T21:50:15.688Z,96.40
2018-12-08T21:52:45.433Z,96.70
2018-12-08T21:55:14.710Z,96.80
2018-12-08T21:57:43.983Z,96.80
2018-12-08T22:00:13.591Z,97.40
2018-12-08T22:02:42.891Z,97.60
2018-12-08T22:05:13.286Z,97.90
2018-12-08T22:07:42.347Z,97.80
2018-12-08T22:10:11.742Z,97.90
2018-12-08T22:12:40.917Z,97.90
2018-12-08T22:15:15.874Z,97.70
2018-12-08T22:17:45.647Z,97.60
2018-12-08T22:20:14.931Z,97.60
2018-12-08T22:22:44.238Z,97.70
2018-12-08T22:25:13.445Z,97.40
2018-12-08T22:27:43.159Z,97.40
2018-12-08T22:30:12.503Z,97.20
2018-12-08T22:32:41.785Z,96.90
2018-12-08T22:35:10.910Z,97.30
2018-12-08T22:37:40.167Z,97.00
2018-12-08T22:40:09.753Z,97.20
2018-12-08T22:42:38.999Z,96.50
2018-12-08T22:45:08.378Z,96.60
2018-12-08T22:47:37.622Z,96.50
2018-12-08T22:50:07.799Z,96.40
2018-12-08T22:52:42.933Z,96.10
2018-12-08T22:55:12.064Z,96.10
2018-12-08T22:57:41.821Z,95.70
2018-12-08T23:00:22.899Z,95.80
2018-12-08T23:02:52.699Z,95.50
2018-12-08T23:05:21.850Z,95.90
2018-12-08T23:07:51.070Z,96.00
2018-12-08T23:10:20.542Z,95.70
2018-12-08T23:12:49.719Z,95.50
2018-12-08T23:15:19.136Z,95.20
2018-12-08T23:17:48.161Z,95.20
2018-12-08T23:20:17.665Z,95.60
2018-12-08T23:22:46.917Z,95.90
2018-12-08T23:25:16.153Z,96.00
2018-12-08T23:27:45.315Z,96.10
2018-12-08T23:30:14.683Z,96.50
2018-12-08T23:32:43.693Z,96.50
2018-12-08T23:35:13.062Z,96.30
2018-12-08T23:37:42.362Z,96.30
2018-12-08T23:40:11.559Z,96.30
2018-12-08T23:42:40.940Z,96.40
2018-12-08T23:45:10.234Z,95.80
2018-12-08T23:47:39.506Z,96.00
2018-12-08T23:50:10.031Z,95.80
2018-12-08T23:52:40.277Z,95.30
2018-12-08T23:55:09.572Z,95.30
2018-12-08T23:57:38.786Z,94.90
